Time;durP1;ratioP1;P1;durP2;ratioP2;P2;SDS_P1;SDS_P2;PMS_P1;PMS_P2;Temp;Humidity;BMP_temperature;BMP_pressure;BME280_temperature;BME280_humidity;BME280_pressure;Samples;Min_cycle;Max_cycle;Signal;HPM_P1;HPM_P2
2023/03/18 00:01:26;;;;;;;2.05;1.15;;;;;;;;;;5056117;28;20127;-85
2023/03/18 00:03:52;;;;;;;1.30;1.20;;;;;;;;;;5049270;28;20072;-85
2023/03/18 00:06:19;;;;;;;1.65;1.00;;;;;;;;;;5043534;28;20404;-84
2023/03/18 00:08:46;;;;;;;3.40;1.27;;;;;;;;;;5042564;28;20029;-82
2023/03/18 00:11:14;;;;;;;0.50;0.47;;;;;;;;;;5042874;28;20067;-84
2023/03/18 00:13:41;;;;;;;0.57;0.57;;;;;;;;;;5042023;28;20555;-83
2023/03/18 00:16:10;;;;;;;0.90;0.40;;;;;;;;;;5044860;28;20098;-85
2023/03/18 00:18:35;;;;;;;0.60;0.60;;;;;;;;;;5040244;28;20029;-85
2023/03/18 00:21:02;;;;;;;0.45;0.45;;;;;;;;;;5036131;28;20032;-84
2023/03/18 00:23:28;;;;;;;0.30;0.30;;;;;;;;;;5042664;28;20021;-84
2023/03/18 00:25:55;;;;;;;2.33;0.77;;;;;;;;;;5039017;28;20492;-84
2023/03/18 00:28:24;;;;;;;0.90;0.70;;;;;;;;;;5037335;28;20573;-83
2023/03/18 00:30:50;;;;;;;0.70;0.70;;;;;;;;;;5044448;28;20433;-85
2023/03/18 00:33:16;;;;;;;2.03;0.93;;;;;;;;;;5042135;28;20055;-83
2023/03/18 00:35:44;;;;;;;1.17;1.08;;;;;;;;;;5045075;28;20036;-84
2023/03/18 00:38:19;;;;;;;2.00;0.90;;;;;;;;;;5036290;28;20041;-82
2023/03/18 00:41:09;;;;;;;1.02;0.95;;;;;;;;;;5039714;28;20040;-81
2023/03/18 00:43:45;;;;;;;0.50;0.32;;;;;;;;;;5055671;28;20033;-82
2023/03/18 00:46:33;;;;;;;0.80;0.80;;;;;;;;;;5045752;28;20021;-84
2023/03/18 00:49:00;;;;;;;0.70;0.70;;;;;;;;;;5040489;28;20497;-83
2023/03/18 00:51:28;;;;;;;1.15;1.10;;;;;;;;;;5040301;28;20032;-83
2023/03/18 00:53:57;;;;;;;0.70;0.70;;;;;;;;;;5039073;28;20033;-83
2023/03/18 00:56:25;;;;;;;4.53;2.45;;;;;;;;;;5037540;28;20021;-83
2023/03/18 00:58:52;;;;;;;1.05;0.85;;;;;;;;;;5042309;28;20031;-82
2023/03/18 01:01:19;;;;;;;0.75;0.47;;;;;;;;;;5039800;28;20041;-82
2023/03/18 01:03:45;;;;;;;1.42;1.15;;;;;;;;;;5036923;28;20100;-83
2023/03/18 01:06:13;;;;;;;0.40;0.40;;;;;;;;;;5036569;28;20045;-83
2023/03/18 01:08:40;;;;;;;0.28;0.28;;;;;;;;;;5040793;28;20493;-84
2023/03/18 01:11:08;;;;;;;1.15;0.45;;;;;;;;;;5049810;28;20115;-84
2023/03/18 01:13:34;;;;;;;4.93;1.48;;;;;;;;;;5046718;28;20025;-83
2023/03/18 01:16:02;;;;;;;7.82;1.75;;;;;;;;;;5043330;28;20472;-83
2023/03/18 01:18:28;;;;;;;3.42;1.08;;;;;;;;;;5040603;28;20124;-83
2023/03/18 01:20:54;;;;;;;1.45;1.35;;;;;;;;;;5039298;28;20022;-81
2023/03/18 01:23:20;;;;;;;3.25;1.63;;;;;;;;;;5043495;28;20043;-83
2023/03/18 01:25:45;;;;;;;1.65;1.42;;;;;;;;;;5044770;28;20036;-83
2023/03/18 01:28:12;;;;;;;1.77;1.33;;;;;;;;;;5044285;28;20033;-84
2023/03/18 01:30:38;;;;;;;1.52;0.77;;;;;;;;;;5044932;28;20070;-84
2023/03/18 01:33:06;;;;;;;1.23;1.13;;;;;;;;;;5045686;28;20112;-83
2023/03/18 01:35:32;;;;;;;1.05;0.93;;;;;;;;;;5045414;28;20021;-83
2023/03/18 01:37:58;;;;;;;0.20;0.20;;;;;;;;;;5046803;28;20055;-83
2023/03/18 01:40:27;;;;;;;0.40;0.40;;;;;;;;;;5042207;28;20017;-83
2023/03/18 01:43:16;;;;;;;0.28;0.28;;;;;;;;;;5043048;28;20043;-83
2023/03/18 01:45:48;;;;;;;0.68;0.65;;;;;;;;;;5044718;28;20033;-83
2023/03/18 01:48:16;;;;;;;0.40;0.40;;;;;;;;;;5038939;28;20094;-84
2023/03/18 01:50:43;;;;;;;1.17;1.05;;;;;;;;;;5039219;28;20037;-83
2023/03/18 01:53:12;;;;;;;0.70;0.70;;;;;;;;;;5046308;28;20022;-84
2023/03/18 01:55:39;;;;;;;0.10;0.10;;;;;;;;;;5046103;28;20029;-82
2023/03/18 01:58:10;;;;;;;0.20;0.20;;;;;;;;;;5043770;28;20480;-84
2023/03/18 02:00:40;;;;;;;1.38;0.82;;;;;;;;;;5039628;28;20041;-82
2023/03/18 02:03:06;;;;;;;0.65;0.60;;;;;;;;;;5043022;28;20056;-82
2023/03/18 02:05:32;;;;;;;1.08;0.63;;;;;;;;;;5045472;28;21069;-83
2023/03/18 02:07:57;;;;;;;0.43;0.43;;;;;;;;;;5045119;28;20020;-82
2023/03/18 02:10:28;;;;;;;0.70;0.45;;;;;;;;;;5041011;28;20516;-82
2023/03/18 02:13:09;;;;;;;0.20;0.20;;;;;;;;;;5044513;28;20096;-81
2023/03/18 02:15:39;;;;;;;0.57;0.57;;;;;;;;;;5040749;28;20527;-82
2023/03/18 02:18:10;;;;;;;0.17;0.17;;;;;;;;;;5047364;28;20480;-82
2023/03/18 02:20:47;;;;;;;0.50;0.50;;;;;;;;;;5041365;28;20028;-83
2023/03/18 02:23:39;;;;;;;0.55;0.55;;;;;;;;;;5046618;28;20045;-83
2023/03/18 02:26:14;;;;;;;0.60;0.60;;;;;;;;;;5038508;28;20025;-83
2023/03/18 02:28:41;;;;;;;1.45;1.35;;;;;;;;;;5038155;28;20107;-83
2023/03/18 02:31:11;;;;;;;3.97;0.73;;;;;;;;;;5044522;28;20026;-83
2023/03/18 02:33:39;;;;;;;0.40;0.40;;;;;;;;;;5043316;28;20060;-83
2023/03/18 02:36:10;;;;;;;0.65;0.43;;;;;;;;;;5037412;28;20513;-83
2023/03/18 02:38:40;;;;;;;0.17;0.17;;;;;;;;;;5038048;28;20484;-83
2023/03/18 02:41:16;;;;;;;0.20;0.20;;;;;;;;;;5045745;28;20533;-83
2023/03/18 02:43:41;;;;;;;0.30;0.30;;;;;;;;;;5041572;28;20060;-82
2023/03/18 02:46:16;;;;;;;1.30;0.60;;;;;;;;;;5044800;28;20028;-85
2023/03/18 02:48:44;;;;;;;0.47;0.47;;;;;;;;;;5045323;28;20056;-83
2023/03/18 02:51:11;;;;;;;0.50;0.50;;;;;;;;;;5040555;28;20104;-83
2023/03/18 02:53:37;;;;;;;0.57;0.57;;;;;;;;;;5043320;28;20048;-83
2023/03/18 02:56:04;;;;;;;2.58;0.60;;;;;;;;;;5044380;28;20032;-85
2023/03/18 02:58:29;;;;;;;1.08;0.88;;;;;;;;;;5040979;28;20029;-84
2023/03/18 03:00:56;;;;;;;1.80;0.60;;;;;;;;;;5043796;28;20046;-84
2023/03/18 03:03:22;;;;;;;3.50;0.68;;;;;;;;;;5047182;28;20021;-85
2023/03/18 03:05:48;;;;;;;1.02;0.65;;;;;;;;;;5043895;28;20096;-84
2023/03/18 03:08:14;;;;;;;0.63;0.63;;;;;;;;;;5044719;28;20071;-85
2023/03/18 03:10:39;;;;;;;0.65;0.65;;;;;;;;;;5044099;28;20029;-84
2023/03/18 03:13:05;;;;;;;0.98;0.73;;;;;;;;;;5045308;28;20036;-84
2023/03/18 03:15:30;;;;;;;0.35;0.35;;;;;;;;;;5047262;28;20024;-84
2023/03/18 03:17:56;;;;;;;0.65;0.65;;;;;;;;;;5043173;28;20017;-83
2023/03/18 03:20:22;;;;;;;0.25;0.25;;;;;;;;;;5045877;28;20126;-83
2023/03/18 03:22:48;;;;;;;0.70;0.70;;;;;;;;;;5043506;28;20033;-84
2023/03/18 03:25:13;;;;;;;2.05;0.93;;;;;;;;;;5045614;28;20028;-84
2023/03/18 03:27:40;;;;;;;0.40;0.40;;;;;;;;;;5042502;28;20112;-83
2023/03/18 03:30:08;;;;;;;2.13;1.65;;;;;;;;;;5040753;28;20025;-86
2023/03/18 03:32:34;;;;;;;2.72;0.65;;;;;;;;;;5045966;28;20028;-86
2023/03/18 03:35:00;;;;;;;1.95;1.73;;;;;;;;;;5043686;28;20434;-86
2023/03/18 03:37:26;;;;;;;0.82;0.75;;;;;;;;;;5046864;28;20032;-86
2023/03/18 03:39:52;;;;;;;0.73;0.73;;;;;;;;;;5044874;28;20032;-85
2023/03/18 03:42:18;;;;;;;1.60;0.98;;;;;;;;;;5048223;28;20048;-87
2023/03/18 03:44:45;;;;;;;0.77;0.77;;;;;;;;;;5056051;28;20082;-86
2023/03/18 03:47:10;;;;;;;0.98;0.93;;;;;;;;;;5043529;28;20040;-85
2023/03/18 03:49:36;;;;;;;2.42;0.65;;;;;;;;;;5045599;28;20029;-86
2023/03/18 03:52:02;;;;;;;1.30;0.90;;;;;;;;;;5046474;28;20022;-86
2023/03/18 03:54:28;;;;;;;0.40;0.40;;;;;;;;;;5047407;28;20052;-83
2023/03/18 03:56:53;;;;;;;1.90;1.27;;;;;;;;;;5044871;28;20086;-84
2023/03/18 03:59:19;;;;;;;1.38;0.93;;;;;;;;;;5044388;28;20017;-85
2023/03/18 04:01:45;;;;;;;0.90;0.88;;;;;;;;;;5042052;28;20075;-83
2023/03/18 04:04:10;;;;;;;1.00;0.93;;;;;;;;;;5040147;28;20032;-85
2023/03/18 04:06:35;;;;;;;1.35;1.25;;;;;;;;;;5045175;28;20029;-84
2023/03/18 04:09:03;;;;;;;1.38;0.98;;;;;;;;;;5042327;28;20048;-83
2023/03/18 04:11:28;;;;;;;0.45;0.40;;;;;;;;;;5042673;28;20572;-82
2023/03/18 04:13:54;;;;;;;0.57;0.57;;;;;;;;;;5039533;28;20029;-82
2023/03/18 04:16:19;;;;;;;0.80;0.80;;;;;;;;;;5041482;28;20022;-83
2023/03/18 04:18:45;;;;;;;0.20;0.20;;;;;;;;;;5036620;28;20051;-83
2023/03/18 04:21:11;;;;;;;0.82;0.82;;;;;;;;;;5035656;28;20025;-83
2023/03/18 04:23:36;;;;;;;0.77;0.77;;;;;;;;;;5040596;28;20035;-82
2023/03/18 04:26:04;;;;;;;0.52;0.52;;;;;;;;;;5043376;28;20436;-82
2023/03/18 04:28:30;;;;;;;1.00;1.00;;;;;;;;;;5041331;28;20087;-81
2023/03/18 04:30:56;;;;;;;0.43;0.43;;;;;;;;;;5044536;28;20033;-83
2023/03/18 04:33:21;;;;;;;1.27;1.17;;;;;;;;;;5039588;28;20053;-82
2023/03/18 04:35:47;;;;;;;11.13;6.22;;;;;;;;;;5043338;28;20047;-84
2023/03/18 04:38:13;;;;;;;20.20;4.38;;;;;;;;;;5044109;28;20057;-82
2023/03/18 04:40:39;;;;;;;3.78;3.33;;;;;;;;;;5045058;28;20112;-82
2023/03/18 04:43:04;;;;;;;6.53;3.08;;;;;;;;;;5055424;28;20033;-82
2023/03/18 04:45:29;;;;;;;2.50;1.33;;;;;;;;;;5039353;28;20032;-83
2023/03/18 04:47:55;;;;;;;2.95;2.20;;;;;;;;;;5041322;28;20033;-83
2023/03/18 04:50:21;;;;;;;2.42;1.63;;;;;;;;;;5039361;28;20044;-84
2023/03/18 04:52:46;;;;;;;3.60;1.67;;;;;;;;;;5044365;28;20033;-83
2023/03/18 04:55:15;;;;;;;3.00;1.13;;;;;;;;;;5041517;28;20049;-83
2023/03/18 04:57:41;;;;;;;6.45;1.65;;;;;;;;;;5044040;28;20508;-82
2023/03/18 05:00:11;;;;;;;2.65;1.70;;;;;;;;;;5046610;28;20521;-81
2023/03/18 05:02:38;;;;;;;4.43;1.00;;;;;;;;;;5037699;28;20149;-82
2023/03/18 05:05:04;;;;;;;1.08;0.77;;;;;;;;;;5046444;28;20147;-79
2023/03/18 05:07:30;;;;;;;2.05;1.23;;;;;;;;;;5039902;28;20048;-80
2023/03/18 05:09:56;;;;;;;1.23;1.13;;;;;;;;;;5045269;28;20515;-82
2023/03/18 05:12:21;;;;;;;1.65;1.55;;;;;;;;;;5037504;28;20029;-79
2023/03/18 05:14:47;;;;;;;2.53;1.58;;;;;;;;;;5042728;28;20075;-83
2023/03/18 05:17:16;;;;;;;1.85;1.75;;;;;;;;;;5043985;28;20029;-85
2023/03/18 05:19:46;;;;;;;1.13;1.05;;;;;;;;;;5042877;28;20037;-83
2023/03/18 05:22:14;;;;;;;2.63;2.13;;;;;;;;;;5033245;28;20048;-80
2023/03/18 05:24:40;;;;;;;2.75;1.85;;;;;;;;;;5044445;28;20127;-80
2023/03/18 05:27:06;;;;;;;3.67;2.35;;;;;;;;;;5037668;28;20033;-81
2023/03/18 05:29:32;;;;;;;3.50;1.65;;;;;;;;;;5036174;28;20135;-81
2023/03/18 05:31:57;;;;;;;2.42;1.83;;;;;;;;;;5037347;28;20469;-81
2023/03/18 05:34:23;;;;;;;2.55;1.55;;;;;;;;;;5044432;28;20021;-79
2023/03/18 05:36:49;;;;;;;1.20;1.10;;;;;;;;;;5037164;28;20025;-81
2023/03/18 05:39:15;;;;;;;1.67;1.38;;;;;;;;;;5038678;28;20492;-80
2023/03/18 05:41:40;;;;;;;1.50;1.40;;;;;;;;;;5045301;28;20474;-82
2023/03/18 05:44:06;;;;;;;0.65;0.65;;;;;;;;;;5034647;28;20021;-81
2023/03/18 05:46:32;;;;;;;1.55;1.02;;;;;;;;;;5039801;28;20025;-79
2023/03/18 05:48:57;;;;;;;1.08;1.02;;;;;;;;;;5036220;28;20445;-79
2023/03/18 05:51:23;;;;;;;1.35;1.25;;;;;;;;;;5034228;28;20041;-80
2023/03/18 05:53:49;;;;;;;3.47;3.00;;;;;;;;;;5029465;28;20024;-79
2023/03/18 05:56:15;;;;;;;3.25;2.08;;;;;;;;;;5033661;28;20025;-79
2023/03/18 05:58:41;;;;;;;2.75;1.77;;;;;;;;;;5035238;28;20128;-80
2023/03/18 06:01:06;;;;;;;3.42;2.55;;;;;;;;;;5031183;28;20054;-80
2023/03/18 06:03:33;;;;;;;4.65;3.33;;;;;;;;;;5033376;28;20120;-80
2023/03/18 06:06:00;;;;;;;2.17;1.90;;;;;;;;;;5043677;28;20032;-80
2023/03/18 06:08:26;;;;;;;3.35;2.65;;;;;;;;;;5036452;28;20037;-81
2023/03/18 06:10:52;;;;;;;8.60;3.25;;;;;;;;;;5035077;28;20032;-79
2023/03/18 06:13:17;;;;;;;6.75;3.33;;;;;;;;;;5031707;28;20021;-80
2023/03/18 06:15:43;;;;;;;6.72;4.95;;;;;;;;;;5033764;28;20117;-83
2023/03/18 06:18:09;;;;;;;8.65;4.95;;;;;;;;;;5040757;28;20495;-79
2023/03/18 06:20:34;;;;;;;11.18;5.72;;;;;;;;;;5031862;28;20018;-81
2023/03/18 06:22:59;;;;;;;14.38;8.32;;;;;;;;;;5044100;28;20025;-79
2023/03/18 06:25:25;;;;;;;10.35;5.95;;;;;;;;;;5042568;28;20572;-79
2023/03/18 06:27:51;;;;;;;10.63;6.53;;;;;;;;;;5041900;28;20021;-80
2023/03/18 06:30:17;;;;;;;15.77;8.60;;;;;;;;;;5036068;28;20470;-79
2023/03/18 06:32:43;;;;;;;11.02;6.60;;;;;;;;;;5037208;28;20125;-80
2023/03/18 06:35:11;;;;;;;8.40;4.80;;;;;;;;;;5040371;28;20443;-79
2023/03/18 06:37:38;;;;;;;7.53;4.38;;;;;;;;;;5032825;28;20075;-80
2023/03/18 06:40:04;;;;;;;18.75;7.10;;;;;;;;;;5039591;28;20538;-79
2023/03/18 06:42:30;;;;;;;11.18;6.63;;;;;;;;;;5047862;28;20480;-79
2023/03/18 06:44:57;;;;;;;15.70;7.45;;;;;;;;;;5032289;28;20090;-79
2023/03/18 06:47:22;;;;;;;11.20;6.75;;;;;;;;;;5035730;28;20496;-79
2023/03/18 06:49:49;;;;;;;8.43;4.43;;;;;;;;;;5042174;28;20048;-81
2023/03/18 06:52:16;;;;;;;7.70;6.55;;;;;;;;;;5041098;28;20473;-84
2023/03/18 06:54:42;;;;;;;7.78;5.22;;;;;;;;;;5036628;28;20370;-85
2023/03/18 06:57:13;;;;;;;21.52;7.35;;;;;;;;;;5031126;28;20034;-78
2023/03/18 06:59:38;;;;;;;5.82;4.68;;;;;;;;;;5037119;28;20040;-79
2023/03/18 07:02:04;;;;;;;8.15;6.05;;;;;;;;;;5035464;28;20475;-80
2023/03/18 07:04:32;;;;;;;8.10;5.25;;;;;;;;;;5031587;28;20033;-79
2023/03/18 07:06:59;;;;;;;8.90;5.55;;;;;;;;;;5033073;28;20419;-79
2023/03/18 07:09:25;;;;;;;10.23;4.72;;;;;;;;;;5038553;28;20021;-80
2023/03/18 07:11:50;;;;;;;10.07;4.80;;;;;;;;;;5033687;28;20036;-80
2023/03/18 07:14:17;;;;;;;9.93;4.72;;;;;;;;;;5033213;28;20029;-79
2023/03/18 07:16:43;;;;;;;10.15;4.30;;;;;;;;;;5035860;28;20104;-80
2023/03/18 07:19:10;;;;;;;5.50;3.30;;;;;;;;;;5038397;28;20033;-81
2023/03/18 07:21:35;;;;;;;5.30;4.30;;;;;;;;;;5041845;28;20159;-79
2023/03/18 07:24:02;;;;;;;5.45;3.35;;;;;;;;;;5038981;28;20108;-81
2023/03/18 07:26:28;;;;;;;8.82;4.07;;;;;;;;;;5036835;28;20040;-83
2023/03/18 07:28:54;;;;;;;13.20;4.13;;;;;;;;;;5033673;28;20025;-83
2023/03/18 07:31:19;;;;;;;16.38;7.40;;;;;;;;;;5036373;28;20056;-80
2023/03/18 07:33:45;;;;;;;6.75;3.83;;;;;;;;;;5037300;28;20039;-80
2023/03/18 07:36:11;;;;;;;7.88;3.60;;;;;;;;;;5037151;28;20137;-81
2023/03/18 07:38:36;;;;;;;6.57;2.75;;;;;;;;;;5044440;28;20098;-81
2023/03/18 07:41:02;;;;;;;3.65;2.55;;;;;;;;;;5036114;28;20025;-83
2023/03/18 07:43:27;;;;;;;5.65;2.88;;;;;;;;;;5041490;28;20029;-83
2023/03/18 07:45:53;;;;;;;7.40;4.32;;;;;;;;;;5040653;28;20033;-81
2023/03/18 07:48:19;;;;;;;5.47;3.42;;;;;;;;;;5042291;28;20028;-80
2023/03/18 07:50:44;;;;;;;3.47;2.13;;;;;;;;;;5037862;28;20071;-83
2023/03/18 07:53:11;;;;;;;5.72;3.53;;;;;;;;;;5042131;28;20021;-80
2023/03/18 07:55:36;;;;;;;8.38;4.47;;;;;;;;;;5036215;28;20489;-82
2023/03/18 07:58:06;;;;;;;7.65;4.10;;;;;;;;;;5040089;28;20032;-81
2023/03/18 08:00:31;;;;;;;4.57;3.47;;;;;;;;;;5034650;28;20041;-82
2023/03/18 08:02:57;;;;;;;7.40;3.65;;;;;;;;;;5036410;28;20033;-79
2023/03/18 08:05:23;;;;;;;7.75;5.18;;;;;;;;;;5039949;28;20112;-79
2023/03/18 08:07:48;;;;;;;8.27;4.65;;;;;;;;;;5037023;28;20427;-81
2023/03/18 08:10:14;;;;;;;7.43;3.42;;;;;;;;;;5037140;28;20029;-80
2023/03/18 08:12:41;;;;;;;8.05;4.35;;;;;;;;;;5034191;28;20036;-79
2023/03/18 08:15:08;;;;;;;26.88;10.32;;;;;;;;;;5037310;28;20369;-80
2023/03/18 08:17:34;;;;;;;12.10;6.40;;;;;;;;;;5033281;28;20029;-81
2023/03/18 08:20:03;;;;;;;9.13;4.80;;;;;;;;;;5059017;28;20033;-86
2023/03/18 08:22:29;;;;;;;9.00;4.35;;;;;;;;;;5041103;28;20384;-83
2023/03/18 08:24:54;;;;;;;5.60;4.03;;;;;;;;;;5046587;28;20043;-81
2023/03/18 08:27:20;;;;;;;5.65;3.55;;;;;;;;;;5047525;28;20457;-82
2023/03/18 08:29:45;;;;;;;11.05;4.97;;;;;;;;;;5043072;28;20029;-81
2023/03/18 08:32:11;;;;;;;6.40;3.83;;;;;;;;;;5037349;28;20032;-83
2023/03/18 08:34:37;;;;;;;9.07;5.55;;;;;;;;;;5041417;28;20171;-80
2023/03/18 08:37:03;;;;;;;9.70;6.03;;;;;;;;;;5042907;28;20091;-84
2023/03/18 08:39:29;;;;;;;11.35;6.22;;;;;;;;;;5041984;28;20021;-80
2023/03/18 08:41:55;;;;;;;12.50;6.07;;;;;;;;;;5044202;28;20390;-79
2023/03/18 08:44:20;;;;;;;8.63;6.03;;;;;;;;;;5041834;28;20021;-79
2023/03/18 08:46:48;;;;;;;7.25;5.10;;;;;;;;;;5038254;28;20136;-78
2023/03/18 08:49:13;;;;;;;11.55;6.47;;;;;;;;;;5039704;28;20709;-78
2023/03/18 08:51:39;;;;;;;14.00;7.45;;;;;;;;;;5036059;28;20017;-79
2023/03/18 08:54:05;;;;;;;14.68;8.20;;;;;;;;;;5034865;28;20033;-78
2023/03/18 08:56:30;;;;;;;13.77;6.80;;;;;;;;;;5035205;28;20040;-78
2023/03/18 08:58:56;;;;;;;11.93;6.53;;;;;;;;;;5034810;28;20378;-77
2023/03/18 09:01:21;;;;;;;19.15;7.47;;;;;;;;;;5054308;28;20080;-77
2023/03/18 09:03:50;;;;;;;15.98;6.63;;;;;;;;;;5029200;28;20112;-78
2023/03/18 09:06:16;;;;;;;25.00;7.50;;;;;;;;;;5041835;28;20026;-78
2023/03/18 09:08:43;;;;;;;7.63;4.78;;;;;;;;;;5031485;28;20533;-79
2023/03/18 09:11:09;;;;;;;13.43;5.70;;;;;;;;;;5040726;28;20036;-79
2023/03/18 09:13:35;;;;;;;11.00;5.85;;;;;;;;;;5044470;28;20022;-79
2023/03/18 09:16:01;;;;;;;10.35;6.68;;;;;;;;;;5040946;28;20093;-78
2023/03/18 09:18:28;;;;;;;12.30;7.82;;;;;;;;;;5029691;28;20120;-79
2023/03/18 09:20:53;;;;;;;13.95;8.40;;;;;;;;;;5046322;28;20029;-78
2023/03/18 09:23:20;;;;;;;9.90;5.78;;;;;;;;;;5039759;28;20530;-79
2023/03/18 09:25:46;;;;;;;17.02;6.90;;;;;;;;;;5034376;28;20040;-78
2023/03/18 09:28:13;;;;;;;10.18;5.20;;;;;;;;;;5033385;28;20037;-79
2023/03/18 09:30:39;;;;;;;7.85;4.78;;;;;;;;;;5036306;28;20487;-80
2023/03/18 09:33:05;;;;;;;11.63;5.45;;;;;;;;;;5034779;28;20025;-77
2023/03/18 09:35:32;;;;;;;7.35;4.82;;;;;;;;;;5035787;28;20029;-78
2023/03/18 09:37:57;;;;;;;3.85;2.22;;;;;;;;;;5039401;28;20191;-79
2023/03/18 09:40:29;;;;;;;7.68;4.20;;;;;;;;;;5029262;28;20112;-79
2023/03/18 09:43:12;;;;;;;6.78;4.55;;;;;;;;;;5039926;28;20026;-78
2023/03/18 09:45:53;;;;;;;6.10;2.60;;;;;;;;;;5038355;28;20038;-79
2023/03/18 09:48:46;;;;;;;6.05;4.18;;;;;;;;;;5036322;28;20120;-78
2023/03/18 09:51:45;;;;;;;8.23;3.63;;;;;;;;;;5038441;28;20039;-80
2023/03/18 09:54:18;;;;;;;4.35;2.42;;;;;;;;;;5031802;28;20047;-78
2023/03/18 09:56:44;;;;;;;4.38;2.55;;;;;;;;;;5031759;28;20478;-80
2023/03/18 09:59:43;;;;;;;3.33;1.90;;;;;;;;;;5028847;28;20053;-78
2023/03/18 10:02:34;;;;;;;4.30;2.63;;;;;;;;;;5032175;28;20489;-77
2023/03/18 10:05:26;;;;;;;2.97;2.22;;;;;;;;;;5034732;28;20470;-78
2023/03/18 10:08:00;;;;;;;8.25;3.20;;;;;;;;;;5043949;28;20895;-80
2023/03/18 10:10:37;;;;;;;5.88;3.08;;;;;;;;;;5033994;28;20033;-79
2023/03/18 10:13:25;;;;;;;3.10;2.00;;;;;;;;;;5072734;28;20039;-78
2023/03/18 10:15:57;;;;;;;3.47;2.28;;;;;;;;;;5036003;28;20052;-78
2023/03/18 10:18:28;;;;;;;4.13;1.75;;;;;;;;;;5033498;28;20036;-77
2023/03/18 10:21:05;;;;;;;4.13;2.17;;;;;;;;;;5032983;28;20440;-79
2023/03/18 10:24:05;;;;;;;8.85;5.72;;;;;;;;;;5034240;28;20041;-79
2023/03/18 10:26:31;;;;;;;;;;;;;;;;;;5040124;28;20465;-79
2023/03/18 10:29:02;;;;;;;4.38;3.28;;;;;;;;;;5043603;28;19971;-79
2023/03/18 10:32:00;;;;;;;2.17;1.85;;;;;;;;;;5037543;28;20026;-78
2023/03/18 10:34:39;;;;;;;3.70;2.13;;;;;;;;;;5039949;28;20088;-78
2023/03/18 10:37:35;;;;;;;5.95;1.95;;;;;;;;;;5041800;28;20057;-79
2023/03/18 10:40:09;;;;;;;5.15;1.95;;;;;;;;;;5039910;28;20037;-78
2023/03/18 10:42:36;;;;;;;3.08;1.88;;;;;;;;;;5032205;28;20497;-79
2023/03/18 10:45:19;;;;;;;1.65;1.23;;;;;;;;;;5040987;28;20033;-78
2023/03/18 10:47:55;;;;;;;2.60;1.83;;;;;;;;;;5035434;28;20469;-78
2023/03/18 10:50:35;;;;;;;4.13;2.53;;;;;;;;;;5037258;28;20021;-79
2023/03/18 10:53:22;;;;;;;3.10;2.20;;;;;;;;;;5045124;28;20028;-79
2023/03/18 10:56:01;;;;;;;3.17;1.65;;;;;;;;;;5031590;28;20030;-78
2023/03/18 10:58:28;;;;;;;2.63;1.45;;;;;;;;;;5030670;28;20089;-79
2023/03/18 11:00:54;;;;;;;2.97;1.77;;;;;;;;;;5034618;28;20046;-79
2023/03/18 11:03:50;;;;;;;2.17;1.98;;;;;;;;;;5036358;28;20078;-78
2023/03/18 11:06:42;;;;;;;1.38;1.00;;;;;;;;;;5032740;28;20041;-77
2023/03/18 11:09:19;;;;;;;2.03;1.20;;;;;;;;;;5031091;28;20080;-78
2023/03/18 11:11:47;;;;;;;1.85;1.30;;;;;;;;;;5038420;28;20104;-78
2023/03/18 11:14:16;;;;;;;2.92;1.98;;;;;;;;;;5037392;28;20025;-78
2023/03/18 11:16:49;;;;;;;4.20;2.38;;;;;;;;;;5031355;28;20036;-81
2023/03/18 11:19:20;;;;;;;2.63;1.55;;;;;;;;;;5034390;28;20472;-78
2023/03/18 11:21:46;;;;;;;2.03;1.33;;;;;;;;;;5025512;28;20037;-78
2023/03/18 11:24:34;;;;;;;5.13;2.38;;;;;;;;;;5038935;28;20055;-78
2023/03/18 11:27:01;;;;;;;4.80;2.83;;;;;;;;;;5034366;28;20079;-78
2023/03/18 11:29:31;;;;;;;1.52;1.23;;;;;;;;;;5034621;28;20030;-78
2023/03/18 11:31:59;;;;;;;1.88;1.30;;;;;;;;;;5035422;28;20104;-79
2023/03/18 11:34:28;;;;;;;4.15;1.50;;;;;;;;;;5033360;28;20083;-79
2023/03/18 11:36:59;;;;;;;3.17;1.58;;;;;;;;;;5031157;28;20039;-78
2023/03/18 11:39:28;;;;;;;2.88;1.65;;;;;;;;;;5034568;28;20032;-78
2023/03/18 11:41:53;;;;;;;5.05;2.80;;;;;;;;;;5033259;28;20389;-79
2023/03/18 11:44:27;;;;;;;2.63;1.52;;;;;;;;;;5035620;28;20048;-78
2023/03/18 11:46:58;;;;;;;3.33;1.55;;;;;;;;;;5035676;28;20108;-78
2023/03/18 11:49:27;;;;;;;3.42;1.73;;;;;;;;;;5028982;28;20033;-78
2023/03/18 11:52:03;;;;;;;5.65;1.90;;;;;;;;;;5032821;28;20489;-79
2023/03/18 11:54:44;;;;;;;3.17;1.90;;;;;;;;;;5028307;28;20057;-78
2023/03/18 11:57:38;;;;;;;3.60;1.90;;;;;;;;;;5031678;28;20025;-79
2023/03/18 12:00:16;;;;;;;4.00;2.10;;;;;;;;;;5048430;28;20037;-79
2023/03/18 12:03:09;;;;;;;2.03;1.52;;;;;;;;;;5036042;28;20116;-79
2023/03/18 12:05:39;;;;;;;1.33;1.15;;;;;;;;;;5033384;28;20056;-78
2023/03/18 12:08:55;;;;;;;5.20;1.63;;;;;;;;;;5042852;28;20025;-77
2023/03/18 12:11:39;;;;;;;1.10;1.00;;;;;;;;;;5035155;28;20548;-81
2023/03/18 12:14:36;;;;;;;1.60;1.25;;;;;;;;;;5035229;28;20021;-78
2023/03/18 12:17:05;;;;;;;0.88;0.88;;;;;;;;;;5038530;28;20075;-79
2023/03/18 12:19:49;;;;;;;6.15;1.83;;;;;;;;;;5032392;28;20029;-78
2023/03/18 12:22:20;;;;;;;0.93;0.85;;;;;;;;;;5037588;28;20390;-79
2023/03/18 12:25:08;;;;;;;2.50;1.15;;;;;;;;;;5030475;28;20401;-80
2023/03/18 12:27:47;;;;;;;0.90;0.85;;;;;;;;;;5031034;28;20076;-78
2023/03/18 12:30:50;;;;;;;1.05;0.90;;;;;;;;;;5037219;28;20025;-77
2023/03/18 12:33:55;;;;;;;2.38;0.93;;;;;;;;;;5041353;28;20031;-79
2023/03/18 12:36:53;;;;;;;1.73;1.08;;;;;;;;;;5041320;28;20744;-78
2023/03/18 12:39:40;;;;;;;0.88;0.80;;;;;;;;;;5041880;28;20120;-78
2023/03/18 12:42:12;;;;;;;2.17;1.52;;;;;;;;;;5028341;28;20030;-79
2023/03/18 12:44:56;;;;;;;2.95;1.40;;;;;;;;;;5040744;28;20033;-78
2023/03/18 12:47:35;;;;;;;3.05;1.30;;;;;;;;;;5031148;28;20444;-84
2023/03/18 12:50:14;;;;;;;2.20;1.60;;;;;;;;;;5040719;28;20108;-83
2023/03/18 12:53:01;;;;;;;4.38;1.80;;;;;;;;;;5028692;28;20014;-81
2023/03/18 12:55:30;;;;;;;5.60;2.42;;;;;;;;;;5034896;28;20045;-84
2023/03/18 12:58:17;;;;;;;2.58;1.40;;;;;;;;;;5029230;28;20481;-84
2023/03/18 13:00:49;;;;;;;1.70;1.23;;;;;;;;;;5034265;28;20059;-83
2023/03/18 13:03:22;;;;;;;2.15;1.55;;;;;;;;;;5035106;28;20470;-83
2023/03/18 13:06:11;;;;;;;5.32;2.60;;;;;;;;;;5036556;28;20043;-82
2023/03/18 13:08:49;;;;;;;6.70;2.50;;;;;;;;;;5035312;28;20072;-82
2023/03/18 13:11:38;;;;;;;10.35;2.35;;;;;;;;;;5041614;28;20154;-84
2023/03/18 13:14:51;;;;;;;1.55;1.15;;;;;;;;;;5058355;28;20041;-80
2023/03/18 13:17:35;;;;;;;2.28;1.58;;;;;;;;;;5036635;28;20043;-81
2023/03/18 13:20:08;;;;;;;2.00;1.35;;;;;;;;;;5035680;28;20032;-81
2023/03/18 13:22:45;;;;;;;3.60;1.30;;;;;;;;;;5036054;28;20354;-84
2023/03/18 13:25:33;;;;;;;2.47;1.88;;;;;;;;;;5052853;28;20029;-83
2023/03/18 13:28:26;;;;;;;2.30;1.35;;;;;;;;;;5043780;28;20037;-82
2023/03/18 13:31:13;;;;;;;3.92;2.08;;;;;;;;;;5052317;28;20158;-83
2023/03/18 13:33:41;;;;;;;2.88;1.65;;;;;;;;;;5041070;28;20104;-83
2023/03/18 13:36:16;;;;;;;3.15;1.83;;;;;;;;;;5048053;28;20757;-84
2023/03/18 13:38:58;;;;;;;3.22;1.80;;;;;;;;;;5040139;28;20469;-83
2023/03/18 13:41:48;;;;;;;2.88;1.90;;;;;;;;;;5041063;28;20021;-84
2023/03/18 13:44:22;;;;;;;4.28;1.63;;;;;;;;;;5041516;28;20467;-83
2023/03/18 13:46:59;;;;;;;2.25;1.60;;;;;;;;;;5041834;28;20571;-84
2023/03/18 13:49:29;;;;;;;2.90;1.77;;;;;;;;;;5043596;28;20440;-84
2023/03/18 13:52:00;;;;;;;2.35;1.58;;;;;;;;;;5039980;28;20045;-84
2023/03/18 13:54:35;;;;;;;2.65;1.65;;;;;;;;;;5039899;28;20032;-84
2023/03/18 13:57:23;;;;;;;4.60;1.98;;;;;;;;;;5036494;28;20188;-85
2023/03/18 13:59:49;;;;;;;2.92;1.42;;;;;;;;;;5038782;28;20036;-84
2023/03/18 14:02:31;;;;;;;3.35;1.33;;;;;;;;;;5042598;28;20477;-83
2023/03/18 14:04:58;;;;;;;2.55;1.95;;;;;;;;;;5036485;28;20033;-84
2023/03/18 14:07:24;;;;;;;4.70;2.17;;;;;;;;;;5031606;28;20029;-84
2023/03/18 14:09:58;;;;;;;2.10;1.30;;;;;;;;;;5045800;28;20052;-84
2023/03/18 14:12:30;;;;;;;3.13;1.67;;;;;;;;;;5034397;28;20049;-80
2023/03/18 14:15:04;;;;;;;2.80;1.52;;;;;;;;;;5037372;28;20037;-79
2023/03/18 14:17:36;;;;;;;6.00;2.22;;;;;;;;;;5035258;28;20028;-80
2023/03/18 14:20:16;;;;;;;1.20;1.02;;;;;;;;;;5040159;28;20029;-81
2023/03/18 14:22:43;;;;;;;1.95;1.15;;;;;;;;;;5033943;28;20107;-85
2023/03/18 14:25:11;;;;;;;1.92;1.08;;;;;;;;;;5030627;28;20497;-83
2023/03/18 14:28:05;;;;;;;1.35;1.02;;;;;;;;;;5038238;28;20028;-82
2023/03/18 14:30:31;;;;;;;1.58;1.42;;;;;;;;;;5024518;28;20156;-83
2023/03/18 14:32:59;;;;;;;3.38;1.30;;;;;;;;;;5032580;28;20112;-83
2023/03/18 14:35:29;;;;;;;1.58;1.23;;;;;;;;;;5034963;28;20033;-80
2023/03/18 14:38:11;;;;;;;1.90;1.38;;;;;;;;;;5035413;28;20029;-80
2023/03/18 14:40:40;;;;;;;3.95;1.80;;;;;;;;;;5034669;28;20391;-79
2023/03/18 14:43:32;;;;;;;3.75;1.77;;;;;;;;;;5037835;28;20029;-80
2023/03/18 14:46:02;;;;;;;2.80;1.67;;;;;;;;;;5033343;28;20492;-81
2023/03/18 14:48:34;;;;;;;1.60;0.93;;;;;;;;;;5032659;28;20113;-81
2023/03/18 14:51:17;;;;;;;5.72;1.60;;;;;;;;;;5037246;28;20044;-81
2023/03/18 14:53:55;;;;;;;1.65;1.33;;;;;;;;;;5034723;28;20040;-82
2023/03/18 14:56:23;;;;;;;3.58;1.50;;;;;;;;;;5057959;28;20083;-80
2023/03/18 14:58:52;;;;;;;2.40;1.58;;;;;;;;;;5038594;28;20025;-80
2023/03/18 15:01:23;;;;;;;3.15;1.48;;;;;;;;;;5033173;28;20053;-82
2023/03/18 15:03:51;;;;;;;1.63;1.00;;;;;;;;;;5034383;28;20033;-79